sensor_id;sensor_type;location;lat;lon;timestamp;pressure;altitude;pressure_sealevel;temperature;humidity
63901;BME280;50538;53.482;10.294;2023-07-30T00:09:35;100263.38;;;16.88;100.00
63901;BME280;50538;53.482;10.294;2023-07-30T00:19:35;100263.16;;;16.90;100.00
63901;BME280;50538;53.482;10.294;2023-07-30T00:29:35;100266.66;;;16.91;100.00
63901;BME280;50538;53.482;10.294;2023-07-30T00:39:36;100294.69;;;16.95;100.00
63901;BME280;50538;53.482;10.294;2023-07-30T00:49:36;100280.88;;;16.91;100.00
63901;BME280;50538;53.482;10.294;2023-07-30T00:59:37;100277.75;;;16.94;100.00
63901;BME280;50538;53.482;10.294;2023-07-30T01:09:37;100265.94;;;17.02;100.00
63901;BME280;50538;53.482;10.294;2023-07-30T01:19:37;100260.53;;;17.08;100.00
63901;BME280;50538;53.482;10.294;2023-07-30T01:29:41;100269.78;;;17.12;100.00
63901;BME280;50538;53.482;10.294;2023-07-30T01:39:44;100279.25;;;17.15;100.00
63901;BME280;50538;53.482;10.294;2023-07-30T01:49:44;100282.75;;;17.15;100.00
63901;BME280;50538;53.482;10.294;2023-07-30T01:59:45;100281.56;;;17.11;100.00
63901;BME280;50538;53.482;10.294;2023-07-30T02:09:45;100275.41;;;17.04;100.00
63901;BME280;50538;53.482;10.294;2023-07-30T02:19:45;100271.34;;;16.95;100.00
63901;BME280;50538;53.482;10.294;2023-07-30T02:29:46;100262.53;;;16.88;100.00
63901;BME280;50538;53.482;10.294;2023-07-30T02:39:46;100268.81;;;16.82;100.00
63901;BME280;50538;53.482;10.294;2023-07-30T02:49:46;100282.25;;;16.75;100.00
63901;BME280;50538;53.482;10.294;2023-07-30T02:59:47;100288.69;;;16.68;100.00
63901;BME280;50538;53.482;10.294;2023-07-30T03:09:47;100296.19;;;16.59;100.00
63901;BME280;50538;53.482;10.294;2023-07-30T03:19:48;100303.03;;;16.48;100.00
63901;BME280;50538;53.482;10.294;2023-07-30T03:29:48;100308.66;;;16.40;100.00
63901;BME280;50538;53.482;10.294;2023-07-30T03:39:49;100308.28;;;16.30;100.00
63901;BME280;50538;53.482;10.294;2023-07-30T03:49:49;100319.84;;;16.24;100.00
63901;BME280;50538;53.482;10.294;2023-07-30T03:59:49;100316.75;;;16.20;100.00
63901;BME280;50538;53.482;10.294;2023-07-30T04:09:50;100321.31;;;16.20;100.00
63901;BME280;50538;53.482;10.294;2023-07-30T04:19:50;100322.72;;;16.22;100.00
63901;BME280;50538;53.482;10.294;2023-07-30T04:29:50;100321.31;;;16.27;100.00
63901;BME280;50538;53.482;10.294;2023-07-30T04:39:50;100327.44;;;16.34;100.00
63901;BME280;50538;53.482;10.294;2023-07-30T04:49:51;100334.59;;;16.46;100.00
63901;BME280;50538;53.482;10.294;2023-07-30T04:59:51;100331.88;;;16.53;100.00
63901;BME280;50538;53.482;10.294;2023-07-30T05:09:51;100338.41;;;16.64;100.00
63901;BME280;50538;53.482;10.294;2023-07-30T05:19:52;100330.53;;;16.75;100.00
63901;BME280;50538;53.482;10.294;2023-07-30T05:29:52;100331.22;;;16.89;100.00
63901;BME280;50538;53.482;10.294;2023-07-30T05:39:52;100330.50;;;17.07;100.00
63901;BME280;50538;53.482;10.294;2023-07-30T05:49:53;100339.25;;;17.20;100.00
63901;BME280;50538;53.482;10.294;2023-07-30T05:59:53;100336.66;;;17.39;100.00
63901;BME280;50538;53.482;10.294;2023-07-30T06:09:53;100333.41;;;17.55;100.00
63901;BME280;50538;53.482;10.294;2023-07-30T06:19:53;100342.25;;;17.80;100.00
63901;BME280;50538;53.482;10.294;2023-07-30T06:29:54;100342.63;;;18.02;100.00
63901;BME280;50538;53.482;10.294;2023-07-30T06:39:54;100333.78;;;18.32;100.00
63901;BME280;50538;53.482;10.294;2023-07-30T06:49:54;100340.28;;;18.61;100.00
63901;BME280;50538;53.482;10.294;2023-07-30T06:59:55;100352.28;;;18.88;100.00
63901;BME280;50538;53.482;10.294;2023-07-30T07:09:55;100356.03;;;18.87;100.00
63901;BME280;50538;53.482;10.294;2023-07-30T07:19:56;100364.09;;;18.87;100.00
63901;BME280;50538;53.482;10.294;2023-07-30T07:29:57;100367.28;;;18.96;98.88
63901;BME280;50538;53.482;10.294;2023-07-30T07:39:57;100359.84;;;19.21;98.78
63901;BME280;50538;53.482;10.294;2023-07-30T07:49:57;100373.63;;;19.66;94.68
63901;BME280;50538;53.482;10.294;2023-07-30T07:59:58;100366.69;;;19.82;96.20
63901;BME280;50538;53.482;10.294;2023-07-30T08:09:58;100358.34;;;20.30;92.19
63901;BME280;50538;53.482;10.294;2023-07-30T08:19:58;100354.59;;;20.88;88.66
63901;BME280;50538;53.482;10.294;2023-07-30T08:29:59;100357.59;;;21.37;82.24
63901;BME280;50538;53.482;10.294;2023-07-30T08:39:59;100361.34;;;21.53;83.02
63901;BME280;50538;53.482;10.294;2023-07-30T08:49:59;100343.44;;;21.46;81.08
63901;BME280;50538;53.482;10.294;2023-07-30T09:00:09;100349.94;;;21.51;80.65
63901;BME280;50538;53.482;10.294;2023-07-30T09:10:10;100354.84;;;21.70;78.52
63901;BME280;50538;53.482;10.294;2023-07-30T09:20:11;100363.28;;;21.74;78.47
63901;BME280;50538;53.482;10.294;2023-07-30T09:30:11;100369.69;;;21.68;77.52
63901;BME280;50538;53.482;10.294;2023-07-30T09:40:13;100359.09;;;21.83;74.40
63901;BME280;50538;53.482;10.294;2023-07-30T09:50:14;100373.03;;;21.92;73.98
63901;BME280;50538;53.482;10.294;2023-07-30T10:00:15;100368.34;;;22.04;74.05
63901;BME280;50538;53.482;10.294;2023-07-30T10:10:17;100382.47;;;22.11;73.79
63901;BME280;50538;53.482;10.294;2023-07-30T10:20:25;100381.72;;;21.94;74.57
63901;BME280;50538;53.482;10.294;2023-07-30T10:30:31;100387.53;;;21.69;71.76
63901;BME280;50538;53.482;10.294;2023-07-30T10:40:32;100386.38;;;21.98;72.32
63901;BME280;50538;53.482;10.294;2023-07-30T10:50:32;100402.34;;;22.00;69.44
63901;BME280;50538;53.482;10.294;2023-07-30T11:00:32;100395.88;;;22.01;70.31
63901;BME280;50538;53.482;10.294;2023-07-30T11:10:41;100401.47;;;21.94;70.74
63901;BME280;50538;53.482;10.294;2023-07-30T11:20:42;100394.72;;;21.97;68.79
63901;BME280;50538;53.482;10.294;2023-07-30T11:30:42;100404.50;;;22.20;69.58
63901;BME280;50538;53.482;10.294;2023-07-30T11:40:43;100389.66;;;22.44;67.42
63901;BME280;50538;53.482;10.294;2023-07-30T11:50:50;100391.72;;;23.07;61.21
63901;BME280;50538;53.482;10.294;2023-07-30T12:00:50;100382.19;;;23.00;58.71
63901;BME280;50538;53.482;10.294;2023-07-30T12:10:52;100385.53;;;23.12;58.78
63901;BME280;50538;53.482;10.294;2023-07-30T12:20:53;100385.41;;;23.29;62.72
63901;BME280;50538;53.482;10.294;2023-07-30T12:30:53;100369.94;;;24.03;59.73
63901;BME280;50538;53.482;10.294;2023-07-30T12:40:54;100367.28;;;24.08;59.80
63901;BME280;50538;53.482;10.294;2023-07-30T12:50:54;100344.81;;;24.18;60.16
63901;BME280;50538;53.482;10.294;2023-07-30T13:00:54;100329.44;;;24.49;54.56
63901;BME280;50538;53.482;10.294;2023-07-30T13:10:55;100322.22;;;25.05;54.79
63901;BME280;50538;53.482;10.294;2023-07-30T13:20:55;100334.09;;;24.59;52.00
63901;BME280;50538;53.482;10.294;2023-07-30T13:30:55;100371.03;;;23.55;50.64
63901;BME280;50538;53.482;10.294;2023-07-30T13:40:57;100483.03;;;20.49;74.30
63901;BME280;50538;53.482;10.294;2023-07-30T13:50:57;100477.66;;;19.07;80.93
63901;BME280;50538;53.482;10.294;2023-07-30T14:00:58;100491.34;;;18.33;82.08
63901;BME280;50538;53.482;10.294;2023-07-30T14:10:58;100479.38;;;17.85;83.46
63901;BME280;50538;53.482;10.294;2023-07-30T14:21:00;100454.72;;;17.70;85.04
63901;BME280;50538;53.482;10.294;2023-07-30T14:31:00;100450.03;;;18.27;85.30
63901;BME280;50538;53.482;10.294;2023-07-30T14:41:00;100442.47;;;19.21;78.84
63901;BME280;50538;53.482;10.294;2023-07-30T14:51:02;100446.94;;;20.03;81.04
63901;BME280;50538;53.482;10.294;2023-07-30T15:01:02;100431.25;;;20.75;74.42
63901;BME280;50538;53.482;10.294;2023-07-30T15:11:03;100430.47;;;20.63;74.29
63901;BME280;50538;53.482;10.294;2023-07-30T15:21:03;100437.38;;;20.71;75.02
63901;BME280;50538;53.482;10.294;2023-07-30T15:31:03;100437.78;;;21.20;70.28
63901;BME280;50538;53.482;10.294;2023-07-30T15:41:04;100450.31;;;21.59;69.39
63901;BME280;50538;53.482;10.294;2023-07-30T15:51:05;100453.91;;;21.31;71.17
63901;BME280;50538;53.482;10.294;2023-07-30T16:01:06;100446.75;;;21.08;72.06
63901;BME280;50538;53.482;10.294;2023-07-30T16:11:11;100449.91;;;20.77;72.10
63901;BME280;50538;53.482;10.294;2023-07-30T16:21:11;100432.59;;;20.61;74.23
63901;BME280;50538;53.482;10.294;2023-07-30T16:31:11;100433.97;;;20.92;74.38
63901;BME280;50538;53.482;10.294;2023-07-30T16:41:12;100434.38;;;21.58;69.89
63901;BME280;50538;53.482;10.294;2023-07-30T16:51:12;100447.31;;;21.39;68.71
63901;BME280;50538;53.482;10.294;2023-07-30T17:01:12;100443.69;;;21.33;69.80
63901;BME280;50538;53.482;10.294;2023-07-30T17:11:13;100454.94;;;21.92;63.39
63901;BME280;50538;53.482;10.294;2023-07-30T17:21:16;100461.19;;;21.31;64.88
63901;BME280;50538;53.482;10.294;2023-07-30T17:31:17;100473.28;;;22.07;60.16
63901;BME280;50538;53.482;10.294;2023-07-30T17:41:17;100490.44;;;20.94;63.33
63901;BME280;50538;53.482;10.294;2023-07-30T17:51:17;100505.91;;;20.11;67.11
63901;BME280;50538;53.482;10.294;2023-07-30T18:01:18;100491.78;;;19.63;70.68
63901;BME280;50538;53.482;10.294;2023-07-30T18:11:18;100489.63;;;19.23;73.45
63901;BME280;50538;53.482;10.294;2023-07-30T18:21:19;100539.13;;;18.92;80.78
63901;BME280;50538;53.482;10.294;2023-07-30T18:31:19;100549.88;;;18.31;84.04
63901;BME280;50538;53.482;10.294;2023-07-30T18:41:19;100570.16;;;17.77;86.18
63901;BME280;50538;53.482;10.294;2023-07-30T18:51:20;100568.19;;;17.14;87.48
63901;BME280;50538;53.482;10.294;2023-07-30T19:01:20;100589.16;;;16.79;89.58
63901;BME280;50538;53.482;10.294;2023-07-30T19:11:20;100591.44;;;16.63;90.27
63901;BME280;50538;53.482;10.294;2023-07-30T19:21:21;100591.25;;;16.58;91.27
63901;BME280;50538;53.482;10.294;2023-07-30T19:31:21;100581.16;;;16.53;91.57
63901;BME280;50538;53.482;10.294;2023-07-30T19:41:21;100587.75;;;16.44;91.30
63901;BME280;50538;53.482;10.294;2023-07-30T19:51:22;100590.66;;;16.29;91.76
63901;BME280;50538;53.482;10.294;2023-07-30T20:01:22;100593.50;;;16.14;91.93
63901;BME280;50538;53.482;10.294;2023-07-30T20:11:22;100575.78;;;16.13;93.33
63901;BME280;50538;53.482;10.294;2023-07-30T20:21:24;100566.31;;;16.17;93.15
63901;BME280;50538;53.482;10.294;2023-07-30T20:31:24;100554.56;;;16.18;93.56
63901;BME280;50538;53.482;10.294;2023-07-30T20:41:25;100550.66;;;16.14;93.69
63901;BME280;50538;53.482;10.294;2023-07-30T20:51:25;100556.63;;;16.10;94.30
63901;BME280;50538;53.482;10.294;2023-07-30T21:01:26;100543.03;;;16.05;94.79
63901;BME280;50538;53.482;10.294;2023-07-30T21:11:26;100542.00;;;15.93;93.81
63901;BME280;50538;53.482;10.294;2023-07-30T21:21:26;100541.34;;;15.84;94.36
63901;BME280;50538;53.482;10.294;2023-07-30T21:31:27;100531.25;;;15.73;93.89
63901;BME280;50538;53.482;10.294;2023-07-30T21:41:27;100521.59;;;15.59;94.93
63901;BME280;50538;53.482;10.294;2023-07-30T21:51:28;100518.28;;;15.50;95.88
63901;BME280;50538;53.482;10.294;2023-07-30T22:01:28;100506.72;;;15.43;97.25
63901;BME280;50538;53.482;10.294;2023-07-30T22:11:28;100498.28;;;15.39;97.71
63901;BME280;50538;53.482;10.294;2023-07-30T22:21:29;100477.69;;;15.33;99.00
63901;BME280;50538;53.482;10.294;2023-07-30T22:31:29;100476.22;;;15.24;99.34
63901;BME280;50538;53.482;10.294;2023-07-30T22:41:29;100469.00;;;15.18;100.00
63901;BME280;50538;53.482;10.294;2023-07-30T22:51:30;100463.84;;;15.10;99.85
63901;BME280;50538;53.482;10.294;2023-07-30T23:01:30;100450.84;;;15.00;100.00
63901;BME280;50538;53.482;10.294;2023-07-30T23:11:31;100449.19;;;14.93;100.00
63901;BME280;50538;53.482;10.294;2023-07-30T23:21:31;100447.31;;;14.86;100.00
63901;BME280;50538;53.482;10.294;2023-07-30T23:31:32;100430.41;;;14.79;100.00
63901;BME280;50538;53.482;10.294;2023-07-30T23:41:32;100425.06;;;14.73;100.00
63901;BME280;50538;53.482;10.294;2023-07-30T23:51:32;100420.94;;;14.70;100.00
